Time;durP1;ratioP1;P1;durP2;ratioP2;P2;SDS_P1;SDS_P2;PMS_P1;PMS_P2;Temp;Humidity;BMP_temperature;BMP_pressure;BME280_temperature;BME280_humidity;BME280_pressure;Samples;Min_cycle;Max_cycle;Signal;HPM_P1;HPM_P2
2023/03/18 00:00:37;;;;;;;5.37;4.07;;;12.80;65.90;;;;;;927714;151;27420;-74
2023/03/18 00:03:03;;;;;;;5.43;4.40;;;12.80;65.90;;;;;;911543;153;27418;-74
2023/03/18 00:05:30;;;;;;;5.10;4.60;;;12.80;65.90;;;;;;912271;153;27336;-74
2023/03/18 00:07:56;;;;;;;5.67;4.20;;;12.80;65.90;;;;;;911076;153;27476;-74
2023/03/18 00:10:23;;;;;;;5.20;4.70;;;12.80;66.00;;;;;;913942;152;27401;-74
2023/03/18 00:12:50;;;;;;;6.60;4.60;;;12.90;66.00;;;;;;926412;151;27407;-74
2023/03/18 00:15:17;;;;;;;6.20;4.23;;;12.90;66.00;;;;;;908873;153;27417;-74
2023/03/18 00:17:42;;;;;;;5.83;4.17;;;12.90;66.00;;;;;;924067;151;27392;-74
2023/03/18 00:20:11;;;;;;;4.87;4.37;;;12.90;66.10;;;;;;910736;153;27389;-73
2023/03/18 00:22:36;;;;;;;6.23;4.50;;;13.00;66.10;;;;;;910035;153;27491;-74
2023/03/18 00:25:02;;;;;;;4.40;4.00;;;13.00;66.20;;;;;;907585;153;27544;-74
2023/03/18 00:27:29;;;;;;;6.57;4.80;;;13.00;66.20;;;;;;925941;151;27379;-73
2023/03/18 00:29:56;;;;;;;5.53;4.93;;;13.00;66.20;;;;;;929096;150;27326;-74
2023/03/18 00:32:22;;;;;;;5.83;4.67;;;13.00;66.10;;;;;;924084;151;27434;-74
2023/03/18 00:34:49;;;;;;;4.53;4.13;;;13.10;66.20;;;;;;919242;153;27415;-73
2023/03/18 00:37:28;;;;;;;7.73;4.20;;;13.10;66.20;;;;;;925752;151;27348;-73
2023/03/18 00:39:43;;;;;;;4.77;4.27;;;13.10;66.20;;;;;;924897;151;27322;-74
2023/03/18 00:42:11;;;;;;;4.77;4.37;;;13.10;66.20;;;;;;925357;151;27332;-73
2023/03/18 00:44:35;;;;;;;6.20;4.40;;;13.10;66.30;;;;;;910311;153;28023;-73
2023/03/18 00:47:02;;;;;;;5.25;4.35;;;13.20;66.30;;;;;;929962;150;27391;-73
2023/03/18 00:49:28;;;;;;;4.80;4.40;;;13.20;66.40;;;;;;910314;153;27309;-73
2023/03/18 00:51:55;;;;;;;4.90;4.10;;;13.20;66.40;;;;;;909431;153;27452;-73
2023/03/18 00:54:23;;;;;;;4.43;4.00;;;13.20;66.30;;;;;;910886;153;27475;-73
2023/03/18 00:56:48;;;;;;;5.60;4.80;;;13.20;66.30;;;;;;910248;153;27519;-73
2023/03/18 00:59:15;;;;;;;5.27;4.67;;;13.20;66.30;;;;;;925516;151;27402;-73
2023/03/18 01:01:41;;;;;;;4.70;4.30;;;13.20;66.30;;;;;;927559;150;27387;-73
2023/03/18 01:04:08;;;;;;;5.60;4.45;;;13.20;67.10;;;;;;910710;153;27388;-73
2023/03/18 01:06:34;;;;;;;5.40;4.90;;;13.20;66.30;;;;;;925163;151;27519;-73
2023/03/18 01:09:01;;;;;;;5.37;4.87;;;13.20;66.40;;;;;;925046;151;27489;-73
2023/03/18 01:11:27;;;;;;;5.87;4.90;;;13.30;66.60;;;;;;910392;153;27841;-73
2023/03/18 01:13:54;;;;;;;5.80;4.63;;;13.20;66.50;;;;;;910991;153;27537;-73
2023/03/18 01:16:21;;;;;;;4.13;3.73;;;13.20;66.70;;;;;;925413;151;27360;-75
2023/03/18 01:18:47;;;;;;;5.37;4.83;;;13.20;66.60;;;;;;911397;153;27441;-76
2023/03/18 01:21:14;;;;;;;6.47;5.10;;;13.30;66.70;;;;;;911942;153;27505;-76
2023/03/18 01:23:41;;;;;;;5.20;4.47;;;13.20;66.60;;;;;;909346;154;27460;-76
2023/03/18 01:26:08;;;;;;;5.10;4.60;;;13.20;66.70;;;;;;919087;151;27447;-73
2023/03/18 01:28:34;;;;;;;5.40;4.47;;;13.30;67.50;;;;;;917801;152;27461;-73
2023/03/18 01:31:00;;;;;;;5.27;4.50;;;13.20;66.50;;;;;;904604;154;27453;-73
2023/03/18 01:33:28;;;;;;;6.63;4.97;;;13.20;66.60;;;;;;912489;154;27318;-73
2023/03/18 01:35:54;;;;;;;7.27;5.03;;;13.20;66.70;;;;;;919185;152;27469;-73
2023/03/18 01:38:20;;;;;;;5.13;4.63;;;13.20;66.80;;;;;;903459;155;27472;-73
2023/03/18 01:40:46;;;;;;;6.40;4.40;;;13.20;66.90;;;;;;911700;153;27417;-73
2023/03/18 01:43:19;;;;;;;4.90;4.40;;;13.20;67.00;;;;;;904875;153;27457;-73
2023/03/18 01:45:52;;;;;;;5.50;4.80;;;13.20;67.00;;;;;;917256;152;27448;-73
2023/03/18 01:48:18;;;;;;;5.40;4.73;;;13.20;67.10;;;;;;903198;154;27488;-73
2023/03/18 01:50:45;;;;;;;5.67;4.30;;;13.20;67.10;;;;;;905612;153;27551;-73
2023/03/18 01:53:11;;;;;;;5.47;4.47;;;13.20;67.20;;;;;;925789;151;27399;-73
2023/03/18 01:55:38;;;;;;;4.93;4.00;;;13.20;67.30;;;;;;917777;152;27387;-73
2023/03/18 01:58:05;;;;;;;6.13;4.70;;;13.20;67.50;;;;;;918932;152;27466;-73
2023/03/18 02:00:31;;;;;;;6.60;4.57;;;13.20;67.30;;;;;;911283;154;27409;-73
2023/03/18 02:02:59;;;;;;;5.87;4.20;;;13.20;67.50;;;;;;903160;155;27897;-73
2023/03/18 02:05:24;;;;;;;4.93;4.50;;;13.20;67.40;;;;;;901561;155;27461;-73
2023/03/18 02:07:51;;;;;;;5.70;4.33;;;13.20;67.50;;;;;;904187;155;27400;-73
2023/03/18 02:10:23;;;;;;;4.55;4.15;;;13.20;67.50;;;;;;904966;155;27543;-73
2023/03/18 02:12:50;;;;;;;3.97;3.57;;;13.20;67.60;;;;;;903268;155;27421;-73
2023/03/18 02:15:17;;;;;;;6.07;4.20;;;13.20;67.60;;;;;;918021;152;27361;-73
2023/03/18 02:17:43;;;;;;;5.73;4.00;;;13.20;67.60;;;;;;905388;154;27507;-73
2023/03/18 02:20:18;;;;;;;5.97;4.60;;;13.20;67.80;;;;;;901409;155;27493;-73
2023/03/18 02:22:45;;;;;;;4.90;4.40;;;13.20;67.60;;;;;;901693;155;27544;-73
2023/03/18 02:25:39;;;;;;;4.80;4.30;;;13.20;67.70;;;;;;919458;151;27539;-73
2023/03/18 02:28:12;;;;;;;5.37;4.23;;;13.20;67.80;;;;;;911295;153;27412;-73
2023/03/18 02:30:40;;;;;;;6.17;4.43;;;13.20;67.60;;;;;;908573;153;27524;-74
2023/03/18 02:33:07;;;;;;;4.83;4.33;;;13.20;67.70;;;;;;910299;153;27428;-73
2023/03/18 02:35:34;;;;;;;6.10;4.40;;;13.20;67.80;;;;;;924355;150;27498;-73
2023/03/18 02:38:00;;;;;;;6.50;5.03;;;13.20;67.80;;;;;;911900;153;27363;-73
2023/03/18 02:40:30;;;;;;;5.90;4.07;;;13.10;67.90;;;;;;911236;153;27426;-73
2023/03/18 02:42:57;;;;;;;6.13;4.80;;;13.10;67.90;;;;;;918496;153;27417;-73
2023/03/18 02:45:34;;;;;;;4.90;4.40;;;13.10;67.90;;;;;;913008;153;27394;-73
2023/03/18 02:48:01;;;;;;;4.77;4.10;;;13.10;67.90;;;;;;907727;153;27371;-74
2023/03/18 02:50:28;;;;;;;5.93;4.30;;;13.10;68.10;;;;;;926373;151;27514;-73
2023/03/18 02:52:54;;;;;;;5.33;4.27;;;13.10;68.20;;;;;;924813;151;27441;-73
2023/03/18 02:55:21;;;;;;;5.57;4.23;;;13.10;68.20;;;;;;929564;150;27388;-73
2023/03/18 02:57:47;;;;;;;5.40;4.10;;;13.10;68.30;;;;;;926973;151;27303;-73
2023/03/18 03:00:15;;;;;;;4.50;4.03;;;13.00;68.20;;;;;;926973;151;27446;-73
2023/03/18 03:02:41;;;;;;;4.97;4.47;;;13.00;68.40;;;;;;910632;153;27423;-73
2023/03/18 03:05:08;;;;;;;5.03;4.30;;;13.00;68.40;;;;;;926516;151;27376;-73
2023/03/18 03:07:34;;;;;;;4.87;3.90;;;13.00;68.50;;;;;;908240;153;27382;-73
2023/03/18 03:10:00;;;;;;;6.10;5.10;;;13.00;68.50;;;;;;925396;151;27813;-76
2023/03/18 03:12:28;;;;;;;6.13;4.07;;;13.00;68.60;;;;;;925763;151;27472;-76
2023/03/18 03:14:53;;;;;;;5.20;4.60;;;13.00;69.50;;;;;;926748;151;27362;-76
2023/03/18 03:17:20;;;;;;;5.17;4.43;;;13.00;68.70;;;;;;926679;151;27371;-76
2023/03/18 03:19:47;;;;;;;5.57;4.20;;;13.00;68.90;;;;;;926827;151;27372;-76
2023/03/18 03:22:16;;;;;;;5.70;4.23;;;13.00;68.90;;;;;;926530;151;27355;-76
2023/03/18 03:24:40;;;;;;;5.00;3.93;;;13.00;68.90;;;;;;925003;151;27406;-77
2023/03/18 03:27:06;;;;;;;6.00;4.10;;;13.00;68.90;;;;;;918709;153;27409;-77
2023/03/18 03:29:33;;;;;;;5.17;4.20;;;13.00;69.00;;;;;;912508;153;27386;-77
2023/03/18 03:32:00;;;;;;;7.67;4.00;;;13.00;69.00;;;;;;925153;151;27333;-77
2023/03/18 03:34:26;;;;;;;6.43;4.30;;;13.00;69.20;;;;;;928946;150;27414;-77
2023/03/18 03:36:53;;;;;;;4.83;4.33;;;13.00;69.30;;;;;;925881;151;27968;-77
2023/03/18 03:39:19;;;;;;;5.93;4.30;;;13.00;69.40;;;;;;927181;151;27428;-77
2023/03/18 03:41:46;;;;;;;5.40;4.07;;;13.00;69.50;;;;;;918751;153;27328;-77
2023/03/18 03:44:13;;;;;;;5.17;3.80;;;13.00;69.60;;;;;;910582;153;27436;-77
2023/03/18 03:46:39;;;;;;;5.50;4.17;;;13.00;69.90;;;;;;925941;151;27372;-77
2023/03/18 03:49:06;;;;;;;4.60;3.87;;;13.00;70.00;;;;;;927532;150;27388;-77
2023/03/18 03:51:32;;;;;;;4.57;3.93;;;13.00;70.00;;;;;;926698;151;27323;-82
2023/03/18 03:53:59;;;;;;;4.30;3.90;;;13.00;70.00;;;;;;925300;151;27460;-82
2023/03/18 03:56:26;;;;;;;4.83;4.30;;;12.90;69.90;;;;;;925650;151;27524;-82
2023/03/18 03:58:52;;;;;;;4.93;3.90;;;12.90;70.20;;;;;;923564;151;27655;-83
2023/03/18 04:01:19;;;;;;;4.27;3.87;;;12.80;70.20;;;;;;942581;148;27714;-83
2023/03/18 04:03:46;;;;;;;5.73;4.13;;;12.80;70.50;;;;;;942414;148;27345;-83
2023/03/18 04:06:12;;;;;;;4.30;3.90;;;12.80;70.90;;;;;;941806;148;27364;-82
2023/03/18 04:08:38;;;;;;;5.00;3.97;;;12.70;71.30;;;;;;942507;148;27457;-82
2023/03/18 04:11:05;;;;;;;4.40;4.00;;;12.70;71.50;;;;;;943145;148;27435;-83
2023/03/18 04:13:32;;;;;;;5.47;3.60;;;12.60;71.80;;;;;;941427;148;27333;-82
2023/03/18 04:15:58;;;;;;;4.20;3.80;;;12.60;72.00;;;;;;942951;148;27330;-82
2023/03/18 04:18:25;;;;;;;4.70;4.20;;;12.60;72.10;;;;;;943276;148;27401;-82
2023/03/18 04:20:51;;;;;;;3.80;3.50;;;12.60;72.30;;;;;;941997;148;27434;-82
2023/03/18 04:23:18;;;;;;;5.80;3.80;;;12.60;72.60;;;;;;941829;148;27365;-82
2023/03/18 04:25:45;;;;;;;5.40;3.70;;;12.60;72.80;;;;;;940491;148;27360;-83
2023/03/18 04:28:12;;;;;;;4.60;3.70;;;12.50;72.90;;;;;;940977;148;27412;-82
2023/03/18 04:30:38;;;;;;;5.47;4.40;;;12.50;73.00;;;;;;942028;148;27455;-82
2023/03/18 04:33:04;;;;;;;7.50;4.20;;;12.50;73.10;;;;;;939461;148;27429;-82
2023/03/18 04:35:31;;;;;;;4.30;3.90;;;12.50;73.10;;;;;;941046;148;27298;-82
2023/03/18 04:37:57;;;;;;;4.73;4.17;;;12.50;73.20;;;;;;941586;148;27443;-82
2023/03/18 04:40:24;;;;;;;3.90;3.60;;;12.50;73.30;;;;;;941378;148;27819;-82
2023/03/18 04:42:51;;;;;;;5.17;4.07;;;12.40;73.30;;;;;;941819;148;27407;-82
2023/03/18 04:45:18;;;;;;;3.83;3.43;;;12.50;73.40;;;;;;944340;148;27529;-82
2023/03/18 04:47:44;;;;;;;4.10;3.70;;;12.50;73.60;;;;;;941286;148;27340;-82
2023/03/18 04:50:11;;;;;;;5.93;4.30;;;12.50;73.50;;;;;;941813;148;27393;-83
2023/03/18 04:52:37;;;;;;;5.07;4.10;;;12.40;72.60;;;;;;941118;148;27392;-83
2023/03/18 04:55:04;;;;;;;5.50;4.40;;;12.40;73.60;;;;;;939186;148;27411;-83
2023/03/18 04:57:30;;;;;;;5.33;3.90;;;12.40;73.50;;;;;;943453;148;27338;-82
2023/03/18 04:59:57;;;;;;;4.60;4.20;;;12.40;73.70;;;;;;942132;148;27462;-82
2023/03/18 05:02:24;;;;;;;5.10;4.37;;;12.40;73.70;;;;;;943824;148;27510;-82
2023/03/18 05:04:50;;;;;;;6.37;4.00;;;12.40;73.80;;;;;;941669;148;27314;-82
2023/03/18 05:07:17;;;;;;;4.43;4.03;;;12.30;73.90;;;;;;941888;148;27373;-82
2023/03/18 05:09:43;;;;;;;5.30;3.90;;;12.30;73.90;;;;;;940675;148;27462;-77
2023/03/18 05:12:10;;;;;;;6.37;4.10;;;12.30;74.00;;;;;;944225;148;27447;-77
2023/03/18 05:14:36;;;;;;;4.43;4.03;;;12.30;74.10;;;;;;943034;148;27320;-77
2023/03/18 05:17:03;;;;;;;4.07;3.70;;;12.20;74.00;;;;;;942095;148;27291;-77
2023/03/18 05:19:29;;;;;;;4.17;3.50;;;12.20;74.00;;;;;;941942;148;27442;-77
2023/03/18 05:21:56;;;;;;;5.07;3.77;;;12.10;73.90;;;;;;942816;148;27363;-77
2023/03/18 05:24:23;;;;;;;4.13;3.73;;;12.10;73.90;;;;;;942004;148;27361;-77
2023/03/18 05:26:49;;;;;;;4.67;3.97;;;12.00;73.90;;;;;;939516;148;27326;-77
2023/03/18 05:29:16;;;;;;;5.17;3.77;;;11.90;73.80;;;;;;941080;148;27365;-77
2023/03/18 05:31:43;;;;;;;5.67;4.37;;;11.80;73.90;;;;;;939846;148;27442;-77
2023/03/18 05:34:09;;;;;;;6.83;3.80;;;11.80;74.00;;;;;;940084;148;27494;-77
2023/03/18 05:36:36;;;;;;;4.83;4.20;;;11.70;74.20;;;;;;942105;148;27341;-77
2023/03/18 05:39:02;;;;;;;6.30;4.07;;;11.60;74.20;;;;;;940751;148;27299;-77
2023/03/18 05:41:29;;;;;;;4.97;4.00;;;11.50;74.40;;;;;;940911;148;27429;-77
2023/03/18 05:43:56;;;;;;;5.43;3.90;;;11.40;74.70;;;;;;937665;148;27457;-77
2023/03/18 05:46:22;;;;;;;6.03;3.60;;;11.30;75.00;;;;;;939192;148;27400;-77
2023/03/18 05:48:48;;;;;;;4.30;3.60;;;11.20;75.30;;;;;;939455;148;27265;-77
2023/03/18 05:51:15;;;;;;;4.97;4.23;;;11.20;75.80;;;;;;940859;148;27354;-77
2023/03/18 05:53:42;;;;;;;4.07;3.73;;;11.20;76.10;;;;;;941729;148;27381;-77
2023/03/18 05:56:09;;;;;;;6.67;3.87;;;11.10;76.40;;;;;;942202;148;27388;-77
2023/03/18 05:58:35;;;;;;;4.33;3.73;;;11.10;76.70;;;;;;940062;148;27338;-77
2023/03/18 06:01:01;;;;;;;4.10;3.70;;;11.20;77.00;;;;;;940355;148;27781;-77
2023/03/18 06:03:28;;;;;;;4.93;3.60;;;11.20;77.30;;;;;;940989;148;27377;-77
2023/03/18 06:05:55;;;;;;;4.47;3.53;;;11.30;77.20;;;;;;941149;148;27413;-77
2023/03/18 06:08:22;;;;;;;4.90;3.77;;;11.30;77.50;;;;;;942839;148;27353;-77
2023/03/18 06:10:48;;;;;;;4.33;3.90;;;11.40;77.80;;;;;;940315;148;27350;-77
2023/03/18 06:13:15;;;;;;;6.23;3.87;;;11.50;78.00;;;;;;939947;148;27444;-77
2023/03/18 06:15:41;;;;;;;6.00;3.97;;;11.60;78.30;;;;;;938106;148;27384;-77
2023/03/18 06:18:08;;;;;;;3.87;3.50;;;11.80;78.70;;;;;;940402;148;27406;-77
2023/03/18 06:20:34;;;;;;;4.67;3.50;;;12.00;79.20;;;;;;940492;148;27443;-77
2023/03/18 06:23:01;;;;;;;3.97;3.57;;;12.20;79.60;;;;;;941485;148;27829;-77
2023/03/18 06:25:27;;;;;;;4.35;3.72;;;12.50;80.00;;;;;;941654;148;27390;-77
2023/03/18 06:27:54;;;;;;;5.95;3.50;;;12.80;79.90;;;;;;941110;148;27531;-77
2023/03/18 06:30:20;;;;;;;6.50;3.87;;;13.10;79.30;;;;;;941895;148;27326;-77
2023/03/18 06:32:47;;;;;;;5.22;3.70;;;13.40;78.20;;;;;;942708;148;27294;-77
2023/03/18 06:35:14;;;;;;;4.10;3.67;;;13.60;77.10;;;;;;943381;148;27348;-77
2023/03/18 06:37:41;;;;;;;4.42;3.27;;;13.80;76.20;;;;;;942854;148;27449;-77
2023/03/18 06:40:07;;;;;;;5.27;3.07;;;13.90;75.40;;;;;;941342;148;27357;-77
2023/03/18 06:42:33;;;;;;;5.30;3.00;;;13.90;74.90;;;;;;913631;153;27356;-77
2023/03/18 06:45:00;;;;;;;3.90;3.60;;;14.00;74.50;;;;;;912110;153;27346;-77
2023/03/18 06:47:27;;;;;;;5.35;3.45;;;13.90;74.00;;;;;;909963;153;27431;-77
2023/03/18 06:49:54;;;;;;;5.40;3.57;;;13.90;73.70;;;;;;918760;153;27410;-77
2023/03/18 06:52:20;;;;;;;3.47;3.17;;;13.90;73.60;;;;;;909814;153;27368;-77
2023/03/18 06:54:46;;;;;;;5.17;4.00;;;13.80;73.70;;;;;;924375;151;27715;-77
2023/03/18 06:57:13;;;;;;;4.97;3.27;;;13.80;73.10;;;;;;908609;153;27406;-77
2023/03/18 06:59:40;;;;;;;5.12;3.62;;;13.70;73.90;;;;;;911177;153;27424;-77
2023/03/18 07:02:07;;;;;;;5.83;3.80;;;13.70;74.10;;;;;;912960;153;27360;-77
2023/03/18 07:04:33;;;;;;;5.73;4.23;;;13.70;74.20;;;;;;918072;153;27364;-77
2023/03/18 07:06:59;;;;;;;4.87;3.83;;;13.70;74.30;;;;;;909856;153;27405;-79
2023/03/18 07:09:26;;;;;;;5.30;3.58;;;13.70;74.40;;;;;;924628;151;27599;-79
2023/03/18 07:11:52;;;;;;;4.17;3.50;;;13.70;74.40;;;;;;925606;151;27422;-79
2023/03/18 07:14:19;;;;;;;5.12;3.70;;;13.80;74.40;;;;;;907828;154;27476;-79
2023/03/18 07:16:46;;;;;;;4.37;3.85;;;13.80;74.40;;;;;;926460;151;27367;-79
2023/03/18 07:19:12;;;;;;;5.47;4.33;;;13.90;74.70;;;;;;911659;153;27296;-79
2023/03/18 07:21:41;;;;;;;4.87;3.65;;;14.00;75.20;;;;;;920692;153;27814;-79
2023/03/18 07:24:06;;;;;;;3.42;3.12;;;14.10;75.80;;;;;;909213;153;27365;-79
2023/03/18 07:26:32;;;;;;;3.77;3.40;;;14.30;76.10;;;;;;927734;150;27340;-79
2023/03/18 07:28:59;;;;;;;4.62;3.35;;;14.60;76.20;;;;;;905558;153;27446;-79
2023/03/18 07:31:25;;;;;;;3.33;3.00;;;14.80;75.80;;;;;;911989;154;27421;-79
2023/03/18 07:33:52;;;;;;;4.67;3.37;;;15.00;75.30;;;;;;902373;155;27464;-79
2023/03/18 07:36:18;;;;;;;4.70;3.70;;;15.20;74.80;;;;;;919731;152;27310;-79
2023/03/18 07:38:45;;;;;;;3.85;3.45;;;15.40;74.20;;;;;;903880;155;27411;-79
2023/03/18 07:41:12;;;;;;;4.67;3.50;;;15.50;73.70;;;;;;920172;152;27397;-75
2023/03/18 07:43:38;;;;;;;4.15;3.10;;;15.70;73.30;;;;;;913794;153;27560;-75
2023/03/18 07:46:05;;;;;;;4.83;2.87;;;15.80;72.90;;;;;;901661;155;27396;-75
2023/03/18 07:48:33;;;;;;;3.20;2.87;;;15.90;72.50;;;;;;903738;154;27481;-75
2023/03/18 07:50:59;;;;;;;3.95;3.25;;;16.00;72.50;;;;;;918625;152;27365;-75
2023/03/18 07:53:25;;;;;;;3.25;2.95;;;16.20;72.50;;;;;;905150;155;27504;-75
2023/03/18 07:55:51;;;;;;;3.83;3.37;;;16.40;73.20;;;;;;919025;152;27400;-75
2023/03/18 07:58:18;;;;;;;4.37;3.12;;;16.60;73.10;;;;;;903393;154;27308;-75
2023/03/18 08:00:44;;;;;;;3.67;3.27;;;17.00;72.80;;;;;;918800;152;27481;-75
2023/03/18 08:03:11;;;;;;;4.28;3.05;;;17.40;73.80;;;;;;902511;155;27437;-75
2023/03/18 08:05:37;;;;;;;4.00;3.22;;;18.00;74.80;;;;;;903843;155;27533;-75
2023/03/18 08:08:04;;;;;;;3.92;2.95;;;18.60;74.60;;;;;;901841;155;27371;-75
2023/03/18 08:10:31;;;;;;;2.98;2.67;;;19.40;73.80;;;;;;921110;152;27434;-75
2023/03/18 08:12:57;;;;;;;3.30;2.42;;;20.20;73.20;;;;;;925034;151;27375;-75
2023/03/18 08:15:24;;;;;;;4.90;2.52;;;21.10;72.30;;;;;;922702;151;27422;-73
2023/03/18 08:17:51;;;;;;;3.15;2.40;;;22.00;71.40;;;;;;920023;151;27342;-75
2023/03/18 08:20:17;;;;;;;3.45;2.40;;;22.90;69.70;;;;;;941116;148;27338;-75
2023/03/18 08:22:44;;;;;;;3.75;2.40;;;23.80;68.20;;;;;;941618;148;27365;-75
2023/03/18 08:25:10;;;;;;;2.83;1.90;;;24.70;66.20;;;;;;925767;150;27788;-75
2023/03/18 08:27:37;;;;;;;1.85;1.75;;;25.60;64.60;;;;;;922651;151;27348;-75
2023/03/18 08:30:03;;;;;;;3.12;2.00;;;26.40;62.60;;;;;;920497;150;27464;-75
2023/03/18 08:32:31;;;;;;;3.37;2.05;;;27.20;60.30;;;;;;902286;155;27406;-75
2023/03/18 08:34:56;;;;;;;3.92;2.30;;;28.00;59.70;;;;;;902234;153;27427;-75
2023/03/18 08:37:23;;;;;;;1.95;1.85;;;28.70;58.40;;;;;;917325;152;27475;-75
2023/03/18 08:39:50;;;;;;;2.20;1.95;;;29.40;57.00;;;;;;918578;152;27346;-75
2023/03/18 08:42:17;;;;;;;3.00;2.17;;;29.90;55.80;;;;;;919335;152;27468;-75
2023/03/18 08:44:43;;;;;;;2.75;2.10;;;30.30;54.20;;;;;;918771;152;27380;-75
2023/03/18 08:47:09;;;;;;;2.55;2.12;;;30.70;52.90;;;;;;918003;152;27483;-75
2023/03/18 08:49:36;;;;;;;2.85;2.35;;;30.90;52.20;;;;;;917396;152;27282;-75
2023/03/18 08:52:03;;;;;;;1.80;1.70;;;31.30;52.00;;;;;;916554;152;27447;-75
2023/03/18 08:54:29;;;;;;;1.82;1.60;;;31.60;51.70;;;;;;918387;152;27467;-75
2023/03/18 08:56:56;;;;;;;3.25;1.70;;;32.00;51.30;;;;;;918189;152;27475;-75
2023/03/18 08:59:22;;;;;;;4.12;1.95;;;32.50;50.50;;;;;;916662;152;27392;-75
2023/03/18 09:01:49;;;;;;;2.33;1.82;;;32.90;50.00;;;;;;919802;152;26298;-76
2023/03/18 09:04:16;;;;;;;2.12;1.67;;;33.30;48.90;;;;;;917175;152;27790;-76
2023/03/18 09:06:42;;;;;;;2.20;1.60;;;33.60;48.30;;;;;;919208;152;27483;-75
2023/03/18 09:09:10;;;;;;;3.87;2.00;;;34.00;47.60;;;;;;917196;152;26318;-75
2023/03/18 09:11:36;;;;;;;2.67;1.77;;;34.30;47.00;;;;;;918248;152;26277;-75
2023/03/18 09:14:02;;;;;;;4.05;2.27;;;34.60;46.30;;;;;;918490;152;26271;-75
2023/03/18 09:16:28;;;;;;;2.02;1.52;;;34.80;45.40;;;;;;919923;151;26407;-75
2023/03/18 09:18:55;;;;;;;2.55;1.77;;;34.90;44.50;;;;;;917453;152;26412;-75
2023/03/18 09:21:22;;;;;;;2.58;1.70;;;35.10;43.70;;;;;;918143;152;26203;-75
2023/03/18 09:23:49;;;;;;;1.95;1.52;;;35.10;43.40;;;;;;917416;151;26282;-75
2023/03/18 09:26:15;;;;;;;2.17;1.55;;;35.20;43.10;;;;;;918524;151;26344;-75
2023/03/18 09:28:41;;;;;;;2.22;1.52;;;35.20;42.80;;;;;;919864;152;26305;-75
2023/03/18 09:31:08;;;;;;;2.42;1.80;;;35.20;42.40;;;;;;920535;152;26430;-75
2023/03/18 09:33:35;;;;;;;1.70;1.50;;;35.20;42.00;;;;;;926480;153;27613;-76
2023/03/18 09:36:02;;;;;;;2.10;1.90;;;35.20;41.60;;;;;;925849;150;26298;-76
2023/03/18 09:38:28;;;;;;;3.58;2.22;;;35.00;40.90;;;;;;910356;153;27514;-75
2023/03/18 09:41:03;;;;;;;2.65;1.72;;;34.90;40.60;;;;;;910657;152;27429;-78
2023/03/18 09:43:39;;;;;;;2.37;1.85;;;34.60;40.10;;;;;;909364;151;27803;-77
2023/03/18 09:46:36;;;;;;;1.87;1.72;;;34.40;40.40;;;;;;913251;153;27416;-77
2023/03/18 09:49:05;;;;;;;2.42;1.70;;;34.20;40.60;;;;;;909797;153;26361;-77
2023/03/18 09:51:45;;;;;;;1.80;1.67;;;34.00;40.50;;;;;;924763;151;27408;-77
2023/03/18 09:54:11;;;;;;;2.15;1.65;;;33.90;40.60;;;;;;924162;150;27385;-78
2023/03/18 09:56:38;;;;;;;1.85;1.40;;;33.70;40.50;;;;;;909085;153;26280;-77
2023/03/18 09:59:04;;;;;;;2.83;1.65;;;33.60;40.80;;;;;;909619;153;27378;-78
2023/03/18 10:01:30;;;;;;;1.65;1.32;;;33.40;39.70;;;;;;915522;153;27405;-78
2023/03/18 10:04:06;;;;;;;1.77;1.20;;;33.20;39.60;;;;;;905370;153;27395;-77
2023/03/18 10:06:32;;;;;;;1.40;1.30;;;32.90;39.30;;;;;;928727;150;27383;-77
2023/03/18 10:09:20;;;;;;;2.22;1.37;;;32.60;39.00;;;;;;923540;151;27534;-77
2023/03/18 10:11:47;;;;;;;1.72;1.40;;;32.20;38.60;;;;;;925289;150;27380;-77
2023/03/18 10:14:25;;;;;;;1.07;0.93;;;31.90;39.30;;;;;;926199;150;27907;-76
2023/03/18 10:17:10;;;;;;;1.92;1.12;;;31.50;38.70;;;;;;924005;151;27494;-77
2023/03/18 10:19:37;;;;;;;1.90;1.42;;;31.10;39.00;;;;;;924710;151;27384;-77
2023/03/18 10:22:12;;;;;;;2.00;1.27;;;30.70;39.30;;;;;;925530;151;27349;-77
2023/03/18 10:24:57;;;;;;;1.82;1.10;;;30.30;39.10;;;;;;926394;151;27382;-77
2023/03/18 10:27:26;;;;;;;2.83;1.20;;;30.00;38.80;;;;;;925277;151;27370;-77
2023/03/18 10:30:11;;;;;;;2.15;1.35;;;29.60;38.90;;;;;;926323;151;27436;-77
2023/03/18 10:32:43;;;;;;;1.27;1.10;;;29.20;39.00;;;;;;925433;150;27362;-77
2023/03/18 10:35:25;;;;;;;2.05;1.20;;;28.90;39.40;;;;;;919486;151;27484;-77
2023/03/18 10:37:55;;;;;;;1.98;0.98;;;28.50;39.50;;;;;;924066;151;27378;-77
2023/03/18 10:40:21;;;;;;;1.32;1.22;;;28.10;39.50;;;;;;924942;151;27408;-77
2023/03/18 10:42:48;;;;;;;2.52;1.37;;;27.80;39.80;;;;;;925589;151;27391;-77
2023/03/18 10:45:29;;;;;;;2.00;1.27;;;27.40;40.00;;;;;;926822;151;27459;-77
2023/03/18 10:48:07;;;;;;;1.37;1.22;;;27.20;40.50;;;;;;928479;150;27392;-77
2023/03/18 10:50:37;;;;;;;2.17;1.15;;;26.90;40.70;;;;;;925323;153;27450;-77
2023/03/18 10:53:07;;;;;;;3.25;1.32;;;26.60;40.70;;;;;;922814;151;27540;-77
2023/03/18 10:55:33;;;;;;;1.85;1.27;;;26.40;41.00;;;;;;909128;153;27988;-77
2023/03/18 10:58:00;;;;;;;2.12;1.30;;;26.20;41.30;;;;;;911000;153;27364;-77
2023/03/18 11:00:28;;;;;;;2.33;1.60;;;26.10;41.60;;;;;;910093;153;27349;-77
2023/03/18 11:02:55;;;;;;;1.42;1.32;;;25.90;42.30;;;;;;909698;153;27528;-77
2023/03/18 11:05:22;;;;;;;3.05;1.20;;;25.80;41.80;;;;;;908811;153;27373;-76
2023/03/18 11:08:04;;;;;;;2.72;2.00;;;25.70;41.80;;;;;;924516;150;27398;-76
2023/03/18 11:10:33;;;;;;;1.57;1.30;;;25.50;41.80;;;;;;924676;151;27379;-76
2023/03/18 11:13:01;;;;;;;1.67;1.20;;;25.40;42.00;;;;;;925376;151;27483;-77
2023/03/18 11:15:26;;;;;;;2.08;1.40;;;25.20;42.00;;;;;;924390;151;27446;-76
2023/03/18 11:17:52;;;;;;;2.60;1.27;;;25.10;42.20;;;;;;926913;151;27385;-77
2023/03/18 11:20:23;;;;;;;1.85;1.27;;;25.00;42.40;;;;;;925346;151;27803;-76
2023/03/18 11:22:50;;;;;;;1.80;1.32;;;24.90;42.60;;;;;;926062;151;27475;-76
2023/03/18 11:25:19;;;;;;;2.75;1.40;;;24.80;42.50;;;;;;926388;151;27399;-76
2023/03/18 11:27:44;;;;;;;1.77;1.60;;;24.70;42.60;;;;;;927029;151;27340;-76
2023/03/18 11:30:14;;;;;;;2.33;1.30;;;24.70;42.70;;;;;;925404;151;27856;-76
2023/03/18 11:32:40;;;;;;;2.50;1.22;;;24.60;42.90;;;;;;924890;151;27528;-76
2023/03/18 11:35:07;;;;;;;1.80;1.47;;;24.50;42.90;;;;;;923411;151;27457;-76
2023/03/18 11:37:36;;;;;;;2.40;1.32;;;24.40;42.70;;;;;;922750;151;27404;-76
2023/03/18 11:40:06;;;;;;;1.45;1.05;;;24.30;43.20;;;;;;921402;151;27529;-77
2023/03/18 11:42:32;;;;;;;2.35;1.40;;;24.20;43.30;;;;;;922374;151;27416;-76
2023/03/18 11:44:59;;;;;;;2.45;1.30;;;24.20;43.40;;;;;;923557;151;27334;-76
2023/03/18 11:47:26;;;;;;;2.65;1.10;;;24.10;43.60;;;;;;921217;151;27400;-76
2023/03/18 11:49:53;;;;;;;2.85;1.37;;;24.10;43.50;;;;;;921868;151;27331;-76
2023/03/18 11:52:31;;;;;;;1.37;1.12;;;24.10;43.40;;;;;;925361;149;27412;-76
2023/03/18 11:55:07;;;;;;;1.52;1.30;;;24.10;43.50;;;;;;920480;151;27365;-76
2023/03/18 11:57:42;;;;;;;1.20;1.02;;;24.10;43.90;;;;;;922781;151;27420;-76
2023/03/18 12:00:21;;;;;;;2.45;1.15;;;24.00;44.00;;;;;;924267;151;27689;-76
2023/03/18 12:02:53;;;;;;;1.60;1.10;;;24.00;44.00;;;;;;922817;151;27840;-76
2023/03/18 12:05:38;;;;;;;2.12;1.60;;;24.10;44.20;;;;;;923158;151;27320;-76
2023/03/18 12:08:16;;;;;;;0.95;0.93;;;24.10;44.20;;;;;;923995;151;27365;-76
2023/03/18 12:11:05;;;;;;;2.22;1.42;;;24.20;44.30;;;;;;923875;151;27399;-76
2023/03/18 12:13:30;;;;;;;1.72;1.45;;;24.30;44.20;;;;;;921826;151;27399;-76
2023/03/18 12:15:56;;;;;;;2.47;2.02;;;24.30;44.20;;;;;;922697;151;27383;-76
2023/03/18 12:18:32;;;;;;;1.20;1.00;;;24.40;44.10;;;;;;921593;151;27468;-76
2023/03/18 12:21:24;;;;;;;1.80;1.20;;;24.50;44.10;;;;;;924273;151;27421;-76
2023/03/18 12:23:58;;;;;;;1.32;1.10;;;24.60;44.00;;;;;;922843;151;27356;-75
2023/03/18 12:26:40;;;;;;;1.70;1.30;;;24.70;43.80;;;;;;920672;151;27420;-76
2023/03/18 12:29:21;;;;;;;1.37;1.17;;;24.70;43.60;;;;;;923032;151;27312;-76
2023/03/18 12:32:07;;;;;;;2.60;1.15;;;24.70;43.50;;;;;;924180;151;27491;-76
2023/03/18 12:34:45;;;;;;;1.12;1.02;;;24.60;43.30;;;;;;925671;151;27369;-81
2023/03/18 12:37:17;;;;;;;2.17;1.00;;;24.60;43.50;;;;;;924981;151;27415;-78
2023/03/18 12:39:59;;;;;;;3.15;1.02;;;24.60;43.70;;;;;;925452;151;27385;-78
2023/03/18 12:42:28;;;;;;;1.30;0.80;;;24.60;43.80;;;;;;925937;151;27456;-78
2023/03/18 12:45:06;;;;;;;2.30;1.42;;;24.70;43.90;;;;;;926468;151;27410;-78
2023/03/18 12:47:36;;;;;;;1.32;1.20;;;24.70;43.80;;;;;;925188;151;27406;-78
2023/03/18 12:50:11;;;;;;;1.25;1.00;;;24.70;43.90;;;;;;925369;151;27359;-78
2023/03/18 12:52:44;;;;;;;1.55;1.17;;;24.70;43.70;;;;;;925728;151;27444;-78